In Rescue
 
Open Full Screen Window  High Contrast Mode
Wind Gusting 18 knots
15
September 23, 2021 1:09 PM EDT
Weather Information
Wind Direction
  260 °
Wind Speed
  15 kt (17 mph)
Wind Gust
  18 kt (21 mph)
Altimeter
29.88 in
Visibility
10 SM
Temperature
11° C
52° F
Dewpoint
07° C
45° F
Humidity
77%
Sky Condition
Overcast @ 2,900 ft
MVFR

METAR KAXV 231709Z AUTO 26015G18KT 10SM OVC029 11/07 A2988 RMK AO2

FAA Disclaimer: The data displayed is for advisory purposes only and is not to be used for flight planning or operations.